Time;durP1;ratioP1;P1;durP2;ratioP2;P2;SDS_P1;SDS_P2;PMS_P1;PMS_P2;Temp;Humidity;BMP_temperature;BMP_pressure;BME280_temperature;BME280_humidity;BME280_pressure;Samples;Min_cycle;Max_cycle;Signal;HPM_P1;HPM_P2
2023/04/06 00:03:26;;;;;;;5.83;4.70;;;;;;;6.83;40.47;98214.97;8414360;28;20228;-69
2023/04/06 00:07:30;;;;;;;7.77;5.23;;;;;;;6.76;40.68;98208.28;8414089;28;20274;-69
2023/04/06 00:11:33;;;;;;;6.33;5.40;;;;;;;6.75;40.82;98210.03;8414089;28;20527;-69
2023/04/06 00:15:36;;;;;;;7.13;4.77;;;;;;;6.76;40.56;98206.59;8414040;28;20235;-69
2023/04/06 00:19:38;;;;;;;7.17;5.60;;;;;;;6.83;40.54;98191.81;8413476;28;20224;-69
2023/04/06 00:23:43;;;;;;;7.17;5.77;;;;;;;6.67;40.87;98193.94;8413423;28;20223;-68
2023/04/06 00:27:45;;;;;;;7.30;5.63;;;;;;;6.81;40.76;98199.56;8413264;28;20243;-68
2023/04/06 00:31:51;;;;;;;7.13;5.23;;;;;;;6.64;41.25;98200.03;8413188;28;20231;-68
2023/04/06 00:35:54;;;;;;;7.13;5.30;;;;;;;6.67;41.35;98201.66;8413233;28;20234;-68
2023/04/06 00:39:59;;;;;;;7.43;5.60;;;;;;;6.61;41.31;98197.50;8412919;28;20262;-69
2023/04/06 00:44:02;;;;;;;5.43;4.90;;;;;;;6.61;40.83;98183.81;8412848;28;20293;-69
2023/04/06 00:48:06;;;;;;;5.10;4.60;;;;;;;6.52;41.30;98186.59;8412831;28;20452;-69
2023/04/06 00:52:08;;;;;;;6.13;5.03;;;;;;;6.36;41.08;98160.38;8412625;28;20224;-68
2023/04/06 00:56:13;;;;;;;5.93;4.83;;;;;;;6.55;41.19;98183.94;8412524;28;20270;-69
2023/04/06 01:00:16;;;;;;;6.60;4.97;;;;;;;6.35;41.33;98177.56;8412835;28;20251;-69
2023/04/06 01:04:19;;;;;;;6.03;5.00;;;;;;;6.52;41.28;98179.72;8412337;28;20433;-68
2023/04/06 01:08:22;;;;;;;6.93;5.27;;;;;;;6.52;41.32;98181.44;8412222;28;20239;-68
2023/04/06 01:12:26;;;;;;;6.97;4.20;;;;;;;6.44;41.27;98185.06;8411965;28;20488;-68
2023/04/06 01:16:31;;;;;;;5.67;4.63;;;;;;;6.33;41.72;98176.75;8412099;28;20243;-68
2023/04/06 01:20:36;;;;;;;6.27;5.30;;;;;;;6.32;41.96;98176.78;8412009;28;20239;-68
2023/04/06 01:24:40;;;;;;;6.50;4.97;;;;;;;6.39;41.75;98168.03;8411715;28;20231;-68
2023/04/06 01:28:44;;;;;;;6.67;5.17;;;;;;;6.34;41.67;98170.72;8411550;28;20513;-68
2023/04/06 01:32:47;;;;;;;6.97;5.97;;;;;;;6.42;42.06;98162.81;8412001;28;20231;-68
2023/04/06 01:36:50;;;;;;;7.63;5.70;;;;;;;6.38;42.14;98166.38;8411671;28;20484;-68
2023/04/06 01:40:57;;;;;;;7.10;5.63;;;;;;;6.41;41.75;98159.38;8411611;28;20237;-70
2023/04/06 01:45:00;;;;;;;7.43;5.90;;;;;;;6.31;41.77;98157.94;8411473;28;20240;-69
2023/04/06 01:49:03;;;;;;;7.87;6.03;;;;;;;6.12;41.71;98161.81;8411432;28;20295;-70
2023/04/06 01:53:05;;;;;;;8.43;5.97;;;;;;;6.06;41.63;98149.97;8411470;28;20381;-70
2023/04/06 01:57:10;;;;;;;9.20;5.63;;;;;;;6.14;41.79;98150.63;8411321;28;20239;-70
2023/04/06 02:01:13;;;;;;;6.93;5.67;;;;;;;6.30;41.39;98155.38;8411383;28;20243;-70
2023/04/06 02:05:16;;;;;;;7.00;5.70;;;;;;;6.03;41.76;98150.84;8411278;28;20397;-70
2023/04/06 02:09:19;;;;;;;7.03;5.73;;;;;;;6.14;41.86;98149.78;8411216;28;20231;-68
2023/04/06 02:13:23;;;;;;;7.97;5.70;;;;;;;6.17;41.38;98154.81;8411414;28;20289;-68
2023/04/06 02:17:26;;;;;;;7.97;5.50;;;;;;;5.97;41.18;98151.00;8411136;28;20231;-68
2023/04/06 02:21:29;;;;;;;7.83;5.73;;;;;;;6.02;41.29;98151.75;8411009;28;20294;-68
2023/04/06 02:25:33;;;;;;;7.50;5.63;;;;;;;6.07;41.36;98143.91;8416757;28;20231;-68
2023/04/06 02:29:37;;;;;;;7.10;5.63;;;;;;;5.90;41.50;98143.44;8417572;28;20224;-68
2023/04/06 02:33:40;;;;;;;6.93;6.00;;;;;;;5.97;41.80;98150.16;8417234;28;20232;-68
2023/04/06 02:37:42;;;;;;;8.10;6.00;;;;;;;6.09;41.71;98146.47;8416477;28;20232;-67
2023/04/06 02:41:45;;;;;;;6.33;5.53;;;;;;;5.49;42.26;98146.03;8416528;28;20298;-68
2023/04/06 02:45:49;;;;;;;7.33;5.63;;;;;;;6.02;41.36;98144.03;8416682;28;20345;-68
2023/04/06 02:49:52;;;;;;;5.80;5.27;;;;;;;5.90;42.16;98135.72;8416468;28;20241;-68
2023/04/06 02:53:55;;;;;;;5.97;5.20;;;;;;;5.71;41.54;98100.16;8416406;28;20228;-69
2023/04/06 02:57:58;;;;;;;7.07;5.13;;;;;;;5.93;41.84;98140.81;8416253;28;20236;-68
2023/04/06 03:02:02;;;;;;;6.43;4.87;;;;;;;5.91;41.87;98143.41;8416133;28;20409;-68
2023/04/06 03:06:05;;;;;;;7.03;4.70;;;;;;;5.81;42.18;98152.22;8415904;28;20232;-68
2023/04/06 03:10:09;;;;;;;5.67;4.50;;;;;;;5.79;41.78;98143.69;8416037;28;20228;-68
2023/04/06 03:14:12;;;;;;;5.27;4.47;;;;;;;5.97;41.43;98145.03;8415651;28;20228;-68
2023/04/06 03:18:16;;;;;;;5.63;4.70;;;;;;;5.71;41.66;98145.56;8415889;28;20258;-68
2023/04/06 03:22:20;;;;;;;6.40;5.10;;;;;;;5.77;42.08;98145.41;8415505;28;20231;-68
2023/04/06 03:26:23;;;;;;;8.50;4.80;;;;;;;5.83;41.66;98147.88;8415241;28;20254;-68
2023/04/06 03:30:26;;;;;;;7.50;4.70;;;;;;;5.86;41.39;98146.09;8415510;28;20259;-68
2023/04/06 03:34:30;;;;;;;6.57;5.10;;;;;;;5.78;41.37;98149.69;8415006;28;20232;-68
2023/04/06 03:38:33;;;;;;;9.03;5.43;;;;;;;5.92;41.24;98150.25;8415203;28;20228;-70
2023/04/06 03:42:36;;;;;;;6.67;4.90;;;;;;;5.76;41.39;98144.59;8414975;28;20239;-70
2023/04/06 03:46:42;;;;;;;5.80;5.07;;;;;;;5.56;41.83;98145.03;8414529;28;20250;-69
2023/04/06 03:50:46;;;;;;;6.83;4.97;;;;;;;5.75;41.33;98142.91;8414498;28;20239;-69
2023/04/06 03:54:49;;;;;;;7.33;5.37;;;;;;;5.78;41.17;98158.25;8414542;28;20474;-69
2023/04/06 03:58:51;;;;;;;6.87;5.20;;;;;;;5.72;41.42;98160.97;8414558;28;20527;-70
2023/04/06 04:02:54;;;;;;;9.07;5.30;;;;;;;5.75;41.46;98157.47;8414305;28;20418;-69
2023/04/06 04:06:58;;;;;;;7.33;5.10;;;;;;;5.67;41.57;98149.91;8413815;28;20228;-70
2023/04/06 04:11:02;;;;;;;8.50;5.47;;;;;;;5.59;41.78;98159.53;8414044;28;20226;-70
2023/04/06 04:15:06;;;;;;;7.13;4.73;;;;;;;5.39;41.96;98160.78;8413936;28;20247;-70
2023/04/06 04:19:09;;;;;;;7.00;5.13;;;;;;;5.00;43.29;98165.81;8413756;28;20232;-70
2023/04/06 04:23:13;;;;;;;7.17;5.07;;;;;;;5.68;41.61;98164.47;8413651;28;20531;-70
2023/04/06 04:27:16;;;;;;;7.80;5.60;;;;;;;5.12;43.30;98166.47;8413267;28;20239;-70
2023/04/06 04:31:22;;;;;;;8.00;5.77;;;;;;;5.45;42.32;98168.38;8413530;28;20235;-70
2023/04/06 04:35:26;;;;;;;6.97;4.97;;;;;;;5.14;42.87;98172.41;8413520;28;20228;-71
2023/04/06 04:39:31;;;;;;;7.33;5.40;;;;;;;5.38;42.29;98173.66;8413004;28;20236;-69
2023/04/06 04:43:34;;;;;;;10.37;5.37;;;;;;;5.41;42.07;98173.63;8412627;28;20231;-69
2023/04/06 04:47:37;;;;;;;6.93;5.20;;;;;;;5.35;42.33;98178.84;8412027;28;20235;-69
2023/04/06 04:51:40;;;;;;;6.23;4.97;;;;;;;5.05;42.96;98181.16;8412402;28;20234;-70
2023/04/06 04:55:44;;;;;;;7.70;5.30;;;;;;;5.40;42.46;98179.63;8412079;28;20239;-69
2023/04/06 04:59:49;;;;;;;6.73;5.30;;;;;;;5.18;42.98;98181.75;8412586;28;20539;-70
2023/04/06 05:03:51;;;;;;;6.93;4.90;;;;;;;5.02;43.47;98181.19;8412319;28;20232;-69
2023/04/06 05:07:55;;;;;;;8.27;5.10;;;;;;;5.43;42.65;98182.97;8412165;28;20309;-69
2023/04/06 05:11:59;;;;;;;8.83;6.60;;;;;;;5.38;42.98;98181.38;8412413;28;20231;-69
2023/04/06 05:16:02;;;;;;;8.57;6.00;;;;;;;5.54;42.83;98190.47;8412036;28;20315;-70
2023/04/06 05:20:06;;;;;;;9.07;6.10;;;;;;;5.80;41.88;98176.22;8412181;28;20421;-69
2023/04/06 05:24:09;;;;;;;8.77;5.80;;;;;;;5.77;42.17;98182.28;8412015;28;20263;-70
2023/04/06 05:28:13;;;;;;;9.33;6.00;;;;;;;5.94;42.44;98186.19;8411804;28;20228;-70
2023/04/06 05:32:21;;;;;;;8.23;5.73;;;;;;;6.21;41.20;98188.16;8411968;28;20230;-69
2023/04/06 05:36:24;;;;;;;7.90;5.67;;;;;;;6.52;40.27;98179.72;8411568;28;20431;-70
2023/04/06 05:40:27;;;;;;;9.00;6.00;;;;;;;7.12;39.43;98188.50;8411959;28;20228;-69
2023/04/06 05:44:32;;;;;;;7.30;5.37;;;;;;;7.46;38.26;98181.56;8411846;28;20232;-70
2023/04/06 05:48:34;;;;;;;7.83;5.13;;;;;;;7.62;38.22;98191.38;8411728;28;20574;-69
2023/04/06 05:52:37;;;;;;;7.00;5.37;;;;;;;7.99;37.60;98197.19;8411586;28;20224;-70
2023/04/06 05:56:40;;;;;;;5.40;4.70;;;;;;;8.09;36.64;98202.91;8412896;28;20239;-69
2023/04/06 06:00:45;;;;;;;7.43;5.30;;;;;;;8.26;36.68;98202.38;8417782;28;20231;-69
2023/04/06 06:04:48;;;;;;;6.67;5.10;;;;;;;8.25;36.28;98206.72;8418270;28;20228;-69
2023/04/06 06:08:51;;;;;;;6.17;5.00;;;;;;;8.62;35.95;98190.06;8417952;28;20240;-69
2023/04/06 06:12:54;;;;;;;8.03;5.07;;;;;;;8.19;35.72;98187.09;8417748;28;20227;-69
2023/04/06 06:16:59;;;;;;;6.70;5.13;;;;;;;8.08;36.38;98175.44;8417787;28;20401;-70
2023/04/06 06:21:01;;;;;;;5.40;4.80;;;;;;;9.11;34.10;98198.75;8417827;28;20389;-70
2023/04/06 06:25:04;;;;;;;6.97;5.07;;;;;;;9.13;34.01;98206.44;8417663;28;20539;-69
2023/04/06 06:29:08;;;;;;;7.10;5.43;;;;;;;8.25;36.14;98209.28;8417345;28;20239;-70
2023/04/06 06:33:12;;;;;;;7.30;5.20;;;;;;;9.02;35.07;98206.81;8417454;28;20287;-69
2023/04/06 06:37:15;;;;;;;7.17;4.80;;;;;;;8.76;35.19;98215.47;8417251;28;20575;-70
2023/04/06 06:41:18;;;;;;;7.93;5.30;;;;;;;8.21;35.92;98216.28;8417086;28;20492;-70
2023/04/06 06:45:21;;;;;;;9.07;5.20;;;;;;;9.06;34.23;98212.72;8416952;28;20220;-70
2023/04/06 06:49:26;;;;;;;5.80;4.77;;;;;;;9.65;34.05;98199.41;8416926;28;20295;-69
2023/04/06 06:53:28;;;;;;;7.63;5.20;;;;;;;8.90;34.52;98207.25;8416951;28;20643;-70
2023/04/06 06:57:31;;;;;;;7.67;5.40;;;;;;;8.59;35.36;98219.41;8416616;28;20235;-70
2023/04/06 07:01:34;;;;;;;6.73;4.90;;;;;;;9.75;34.30;98212.88;8416413;28;20582;-70
2023/04/06 07:05:39;;;;;;;5.67;4.67;;;;;;;10.03;33.67;98212.63;8416247;28;20224;-70
2023/04/06 07:09:43;;;;;;;7.83;5.43;;;;;;;9.34;34.26;98212.59;8415105;28;20488;-69
2023/04/06 07:13:46;;;;;;;8.00;5.27;;;;;;;10.56;33.20;98208.88;8415994;28;20259;-69
2023/04/06 07:17:49;;;;;;;6.60;5.17;;;;;;;9.96;33.49;98212.06;8415971;28;20228;-70
2023/04/06 07:21:54;;;;;;;7.63;4.93;;;;;;;10.46;32.77;98213.59;8416060;28;20478;-68
2023/04/06 07:25:57;;;;;;;6.13;4.87;;;;;;;10.83;32.59;98212.09;8415605;28;20243;-69
2023/04/06 07:29:59;;;;;;;5.63;5.07;;;;;;;10.61;32.78;98211.31;8415662;28;20236;-70
2023/04/06 07:34:02;;;;;;;8.53;5.20;;;;;;;11.27;32.14;98209.41;8415484;28;20227;-69
2023/04/06 07:38:06;;;;;;;7.57;5.50;;;;;;;11.12;32.93;98217.84;8415465;28;20228;-69
2023/04/06 07:42:09;;;;;;;9.10;5.30;;;;;;;12.26;30.83;98224.00;8415248;28;20235;-70
2023/04/06 07:46:12;;;;;;;8.33;5.80;;;;;;;11.26;31.60;98214.63;8414758;28;20233;-69
2023/04/06 07:50:15;;;;;;;6.07;5.47;;;;;;;11.53;31.94;98215.19;8415137;28;20434;-70
2023/04/06 07:54:20;;;;;;;9.07;5.10;;;;;;;12.55;30.91;98213.97;8414586;28;20236;-70
2023/04/06 07:58:22;;;;;;;5.07;2.80;;;;;;;15.01;56.85;98226.97;8414896;28;20405;-71
2023/04/06 08:02:28;;;;;;;7.87;3.30;;;;;;;17.05;46.04;98220.44;8414156;28;20236;-69
2023/04/06 08:06:31;;;;;;;8.30;5.70;;;;;;;14.69;28.83;98210.59;8414098;28;20434;-71
2023/04/06 08:10:35;;;;;;;7.97;6.00;;;;;;;14.68;28.49;98211.53;8414270;28;20251;-71
2023/04/06 08:14:39;;;;;;;6.50;5.87;;;;;;;14.38;28.82;98212.28;8413905;28;20456;-71
2023/04/06 08:18:42;;;;;;;6.30;5.60;;;;;;;14.31;28.50;98189.28;8413551;28;20228;-70
2023/04/06 08:22:45;;;;;;;6.33;5.73;;;;;;;15.35;27.65;98216.34;8412841;28;20229;-70
2023/04/06 08:26:50;;;;;;;8.17;5.80;;;;;;;15.14;26.45;98197.59;8413766;28;20230;-71
2023/04/06 08:30:53;;;;;;;7.17;5.50;;;;;;;15.40;27.22;98207.31;8413814;28;20519;-71
2023/04/06 08:34:56;;;;;;;6.87;6.00;;;;;;;15.28;25.94;98213.22;8413595;28;20235;-71
2023/04/06 08:39:00;;;;;;;6.93;5.70;;;;;;;15.31;26.24;98205.25;8413099;28;20545;-71
2023/04/06 08:43:08;;;;;;;7.53;6.23;;;;;;;15.34;25.89;98201.59;8413248;28;20224;-71
2023/04/06 08:47:11;;;;;;;13.90;6.00;;;;;;;15.12;28.16;98213.31;8412419;28;20231;-71
2023/04/06 08:51:16;;;;;;;8.17;6.27;;;;;;;15.94;25.69;98211.03;8412905;28;20229;-70
2023/04/06 08:55:19;;;;;;;8.20;6.90;;;;;;;16.08;24.27;98216.22;8412836;28;20245;-70
2023/04/06 08:59:24;;;;;;;7.60;6.37;;;;;;;16.26;24.69;98216.84;8412860;28;20565;-70
2023/04/06 09:03:28;;;;;;;7.07;6.37;;;;;;;16.92;24.29;98209.13;8412459;28;20253;-70
2023/04/06 09:07:31;;;;;;;8.00;7.00;;;;;;;16.57;24.06;98209.66;8411499;28;20246;-70
2023/04/06 09:11:48;;;;;;;7.70;6.30;;;;;;;17.56;23.14;98203.94;8412686;28;20335;-70
2023/04/06 09:16:01;;;;;;;7.87;6.83;;;;;;;16.24;24.20;98203.03;8411882;28;20230;-69
2023/04/06 09:20:04;;;;;;;9.40;7.20;;;;;;;16.97;23.29;98200.03;8394796;28;20240;-69
2023/04/06 09:24:08;;;;;;;7.93;7.10;;;;;;;17.76;21.76;98198.16;8412094;28;20219;-69
2023/04/06 09:28:12;;;;;;;7.83;7.00;;;;;;;17.61;21.31;98188.75;8411877;28;20552;-69
2023/04/06 09:32:16;;;;;;;8.40;7.50;;;;;;;16.09;23.01;98199.63;8411698;28;20232;-69
2023/04/06 09:36:20;;;;;;;8.93;8.00;;;;;;;17.61;22.30;98175.66;8412054;28;20231;-70
2023/04/06 09:40:24;;;;;;;8.60;7.80;;;;;;;18.12;20.70;98175.53;8411765;28;20442;-69
2023/04/06 09:44:28;;;;;;;9.60;8.27;;;;;;;17.29;21.61;98180.50;8411930;28;20285;-70
2023/04/06 09:48:34;;;;;;;9.00;8.07;;;;;;;17.55;20.54;98171.69;8411795;28;20238;-70
2023/04/06 09:52:41;;;;;;;9.53;8.23;;;;;;;17.97;20.20;98177.50;8411847;28;20421;-69
2023/04/06 09:56:47;;;;;;;8.40;7.60;;;;;;;18.69;19.99;98181.06;8410801;28;20317;-68
2023/04/06 10:00:56;;;;;;;9.80;8.37;;;;;;;18.04;20.05;98166.56;8411308;28;20237;-70
2023/04/06 10:05:06;;;;;;;8.60;7.80;;;;;;;18.76;20.25;98166.53;8411514;28;20409;-69
2023/04/06 10:09:10;;;;;;;9.30;7.63;;;;;;;18.98;19.53;98159.69;8411260;28;20232;-69
2023/04/06 10:13:13;;;;;;;10.07;8.37;;;;;;;18.85;19.78;98165.88;8411425;28;20224;-69
2023/04/06 10:17:16;;;;;;;9.33;8.43;;;;;;;18.53;19.87;98163.00;8411163;28;20231;-69
2023/04/06 10:21:24;;;;;;;9.83;8.90;;;;;;;19.28;19.33;98157.34;8411201;28;20429;-70
2023/04/06 10:25:28;;;;;;;9.53;8.67;;;;;;;18.40;19.94;98157.00;8411022;28;20244;-69
2023/04/06 10:29:43;;;;;;;9.30;8.27;;;;;;;18.99;18.82;98150.88;8411232;28;20425;-70
2023/04/06 10:33:55;;;;;;;9.23;8.43;;;;;;;19.20;19.38;98151.03;8410558;28;20505;-70
2023/04/06 10:38:04;;;;;;;9.00;8.10;;;;;;;19.11;19.27;98128.94;8410965;28;20238;-71
2023/04/06 10:42:07;;;;;;;8.37;7.67;;;;;;;18.35;19.15;98149.44;8410765;28;20250;-70
2023/04/06 10:46:11;;;;;;;8.80;8.00;;;;;;;18.28;19.49;98151.69;8415688;28;20418;-71
2023/04/06 10:50:17;;;;;;;8.20;7.50;;;;;;;19.12;18.96;98136.72;8416982;28;20232;-71
2023/04/06 10:54:22;;;;;;;7.90;7.20;;;;;;;19.70;18.30;98135.75;8416684;28;20506;-71
2023/04/06 10:58:25;;;;;;;7.60;7.00;;;;;;;18.26;19.79;98135.25;8416567;28;20232;-71
2023/04/06 11:02:29;;;;;;;8.67;7.93;;;;;;;18.79;18.46;98133.97;8416531;28;20231;-71
2023/04/06 11:06:32;;;;;;;8.23;7.53;;;;;;;18.37;19.48;98126.56;8416342;28;20228;-70
2023/04/06 11:10:36;;;;;;;8.37;7.67;;;;;;;19.24;18.88;98132.28;8416325;28;20426;-71
2023/04/06 11:14:39;;;;;;;8.03;7.30;;;;;;;19.53;18.79;98132.66;8416298;28;20229;-72
2023/04/06 11:18:52;;;;;;;7.93;7.23;;;;;;;19.96;17.81;98117.94;8415417;28;20435;-71
2023/04/06 11:22:55;;;;;;;7.50;6.90;;;;;;;20.29;19.04;98111.72;8415871;28;20228;-72
2023/04/06 11:27:00;;;;;;;8.03;7.30;;;;;;;19.59;18.92;98115.59;8415889;28;20230;-72
2023/04/06 11:31:03;;;;;;;8.90;8.03;;;;;;;19.88;18.12;98113.31;8415405;28;20221;-72
2023/04/06 11:35:07;;;;;;;8.77;8.07;;;;;;;19.73;17.91;98102.22;8415519;28;20450;-72
2023/04/06 11:39:10;;;;;;;7.87;7.20;;;;;;;19.81;17.95;98101.59;8415164;28;20237;-73
2023/04/06 11:43:15;;;;;;;7.30;6.70;;;;;;;19.50;18.36;98095.31;8415583;28;20250;-73
2023/04/06 11:47:20;;;;;;;7.87;7.10;;;;;;;20.12;17.05;98093.88;8414787;28;20236;-73
2023/04/06 11:51:23;;;;;;;7.73;7.03;;;;;;;19.19;17.69;98091.59;8414932;28;20330;-72
2023/04/06 11:55:26;;;;;;;7.90;7.20;;;;;;;19.43;18.64;98091.47;8414477;28;20312;-72
2023/04/06 11:59:31;;;;;;;7.53;6.83;;;;;;;19.80;17.49;98088.59;8414778;28;20275;-72
2023/04/06 12:03:34;;;;;;;6.77;6.27;;;;;;;20.27;18.22;98091.78;8414716;28;20524;-72
2023/04/06 12:07:37;;;;;;;7.50;6.80;;;;;;;18.64;18.28;98084.38;8414494;28;20230;-71
2023/04/06 12:11:40;;;;;;;7.23;6.53;;;;;;;19.67;17.71;98086.09;8414430;28;20244;-70
2023/04/06 12:15:45;;;;;;;6.63;6.03;;;;;;;20.05;16.95;98083.03;8413956;28;20225;-72
2023/04/06 12:19:48;;;;;;;6.50;6.00;;;;;;;19.88;17.17;98071.25;8414138;28;20235;-72
2023/04/06 12:23:50;;;;;;;7.30;5.97;;;;;;;20.35;17.17;98070.94;8414177;28;20250;-71
2023/04/06 12:27:56;;;;;;;5.90;5.40;;;;;;;20.58;17.39;98061.16;8413674;28;20229;-71
2023/04/06 12:32:01;;;;;;;7.07;6.47;;;;;;;20.58;16.76;98058.53;8413803;28;20423;-73
2023/04/06 12:36:04;;;;;;;6.13;5.63;;;;;;;20.62;17.20;98053.84;8413535;28;20272;-72
2023/04/06 12:40:10;;;;;;;6.77;6.17;;;;;;;20.13;17.03;98064.00;8413455;28;20230;-71
2023/04/06 12:44:13;;;;;;;6.63;6.03;;;;;;;20.39;16.38;98064.47;8413425;28;20233;-73
2023/04/06 12:48:17;;;;;;;6.23;5.63;;;;;;;20.67;16.27;98051.66;8413186;28;20235;-72
2023/04/06 12:52:20;;;;;;;7.30;6.13;;;;;;;19.43;16.90;98058.16;8413139;28;20242;-71
2023/04/06 12:56:23;;;;;;;6.07;5.57;;;;;;;20.68;16.72;98048.91;8412712;28;20242;-72
2023/04/06 13:00:26;;;;;;;6.50;5.90;;;;;;;19.94;15.80;98043.63;8412770;28;20276;-71
2023/04/06 13:04:30;;;;;;;6.67;6.17;;;;;;;18.60;16.44;98045.34;8412490;28;20245;-71
2023/04/06 13:08:33;;;;;;;6.43;5.50;;;;;;;20.56;16.04;98044.66;8411961;28;20404;-71
2023/04/06 13:12:36;;;;;;;5.87;5.47;;;;;;;20.29;15.88;98040.72;8412589;28;20232;-71
2023/04/06 13:16:39;;;;;;;6.53;6.03;;;;;;;20.57;17.12;98037.59;8412391;28;20528;-70
2023/04/06 13:20:44;;;;;;;6.70;6.20;;;;;;;20.64;16.32;98038.78;8412029;28;20521;-69
2023/04/06 13:24:47;;;;;;;5.93;5.40;;;;;;;20.65;17.23;97995.72;8412429;28;20242;-69
2023/04/06 13:28:50;;;;;;;8.83;7.27;;;;;;;20.35;17.95;98023.59;8412065;28;20224;-70
2023/04/06 13:32:52;;;;;;;6.57;6.07;;;;;;;20.61;18.07;98026.69;8411934;28;20226;-70
2023/04/06 13:36:57;;;;;;;6.87;6.17;;;;;;;20.78;17.12;98017.38;8411906;28;20232;-70
2023/04/06 13:40:59;;;;;;;7.50;6.53;;;;;;;19.69;18.02;98019.31;8412047;28;20236;-71
2023/04/06 13:45:02;;;;;;;7.53;6.83;;;;;;;18.56;19.80;98011.50;8411863;28;20325;-71
2023/04/06 13:49:05;;;;;;;6.67;6.13;;;;;;;19.62;19.43;98014.69;8411708;28;20258;-71
2023/04/06 13:53:10;;;;;;;7.00;6.40;;;;;;;18.65;19.85;98007.34;8411915;28;20318;-71
2023/04/06 13:57:13;;;;;;;6.30;5.80;;;;;;;18.20;20.33;98009.03;8411472;28;20269;-71
2023/04/06 14:01:16;;;;;;;7.17;6.57;;;;;;;18.98;20.01;98016.19;8411657;28;20239;-71
2023/04/06 14:05:19;;;;;;;7.40;6.70;;;;;;;18.65;20.19;98006.50;8411362;28;20234;-71
2023/04/06 14:09:23;;;;;;;6.93;6.30;;;;;;;18.17;20.69;97997.00;8411618;28;20254;-71
2023/04/06 14:13:26;;;;;;;6.73;6.13;;;;;;;19.16;19.59;98000.81;8411751;28;20225;-71
2023/04/06 14:17:28;;;;;;;9.83;7.97;;;;;;;19.13;18.79;97998.41;8412276;28;20239;-71
2023/04/06 14:21:32;;;;;;;7.10;6.40;;;;;;;19.21;18.53;97997.81;8418006;28;20232;-71
2023/04/06 14:25:36;;;;;;;6.57;6.03;;;;;;;19.91;19.46;97997.44;8418001;28;20505;-71
2023/04/06 14:29:39;;;;;;;6.70;6.10;;;;;;;20.25;19.30;97997.25;8417387;28;20263;-71
2023/04/06 14:33:42;;;;;;;5.60;5.10;;;;;;;20.18;18.28;97992.63;8416987;28;20294;-71
2023/04/06 14:37:46;;;;;;;6.23;5.73;;;;;;;19.89;17.52;97990.59;8417113;28;20293;-71
2023/04/06 14:41:51;;;;;;;5.63;5.13;;;;;;;20.04;17.74;97994.59;8417256;28;20517;-71
2023/04/06 14:45:54;;;;;;;5.60;5.10;;;;;;;19.23;18.09;97995.91;8416694;28;20224;-71
2023/04/06 14:49:57;;;;;;;5.10;4.70;;;;;;;18.54;18.20;97986.34;8416910;28;20252;-72
2023/04/06 14:54:02;;;;;;;7.33;5.53;;;;;;;18.70;18.82;97986.84;8416955;28;20239;-71
2023/04/06 14:58:06;;;;;;;5.50;5.00;;;;;;;19.08;17.67;97977.78;8416588;28;20228;-71
2023/04/06 15:02:09;;;;;;;4.60;4.20;;;;;;;19.43;17.97;97981.19;8416669;28;20557;-71
2023/04/06 15:06:14;;;;;;;5.50;5.00;;;;;;;19.11;18.63;97979.34;8416325;28;20274;-71
2023/04/06 15:10:18;;;;;;;5.97;5.50;;;;;;;19.10;18.36;97975.88;8416286;28;20320;-71
2023/04/06 15:14:22;;;;;;;5.83;5.23;;;;;;;18.82;18.13;97984.25;8416096;28;20274;-71
2023/04/06 15:18:25;;;;;;;5.37;4.97;;;;;;;18.90;18.25;97969.56;8416180;28;20228;-71
2023/04/06 15:22:27;;;;;;;5.83;5.33;;;;;;;19.03;17.86;97969.44;8416006;28;20235;-71
2023/04/06 15:26:30;;;;;;;5.67;5.17;;;;;;;18.50;18.87;97970.00;8415968;28;20235;-71
2023/04/06 15:30:35;;;;;;;4.87;4.47;;;;;;;18.63;18.60;97975.16;8414993;28;20236;-72
2023/04/06 15:34:38;;;;;;;5.77;5.27;;;;;;;18.33;19.28;97959.97;8415359;28;20419;-71
2023/04/06 15:38:41;;;;;;;5.83;5.10;;;;;;;18.34;18.71;97959.03;8415651;28;20251;-71
2023/04/06 15:42:43;;;;;;;5.63;5.13;;;;;;;18.66;19.15;97976.72;8415238;28;20288;-71
2023/04/06 15:46:48;;;;;;;5.63;5.13;;;;;;;18.39;18.79;97967.41;8415208;28;20239;-71
2023/04/06 15:50:50;;;;;;;5.50;5.10;;;;;;;18.09;18.70;97966.13;8414862;28;20243;-70
2023/04/06 15:54:53;;;;;;;5.23;4.83;;;;;;;18.11;19.92;97955.53;8415555;28;20427;-72
2023/04/06 15:58:56;;;;;;;6.33;5.73;;;;;;;17.79;20.30;97964.81;8414590;28;20640;-71
2023/04/06 16:03:01;;;;;;;6.40;5.80;;;;;;;17.75;20.18;97959.91;8415197;28;20360;-71
2023/04/06 16:07:07;;;;;;;6.80;5.57;;;;;;;17.78;20.62;97965.78;8415185;28;20505;-72
2023/04/06 16:11:12;;;;;;;9.13;5.23;;;;;;;17.46;21.23;97970.75;8414830;28;20236;-71
2023/04/06 16:15:15;;;;;;;5.87;5.37;;;;;;;17.26;20.15;97961.69;8414639;28;20405;-71
2023/04/06 16:19:20;;;;;;;7.00;6.30;;;;;;;17.29;20.26;97960.66;8414460;28;20226;-73
2023/04/06 16:23:23;;;;;;;5.70;5.23;;;;;;;17.11;20.60;97957.56;8413628;28;20239;-71
2023/04/06 16:27:26;;;;;;;6.30;5.37;;;;;;;16.75;20.82;97952.19;8413660;28;20231;-72
2023/04/06 16:31:29;;;;;;;6.40;5.90;;;;;;;16.77;20.88;97963.38;8413531;28;20235;-71
2023/04/06 16:35:34;;;;;;;6.80;6.20;;;;;;;16.74;21.51;97958.34;8413959;28;20230;-72
2023/04/06 16:39:37;;;;;;;6.13;5.53;;;;;;;16.46;21.52;97958.56;8413012;28;20240;-72
2023/04/06 16:43:41;;;;;;;7.60;6.50;;;;;;;16.48;21.15;97962.75;8412138;28;20315;-72
2023/04/06 16:47:44;;;;;;;6.77;6.10;;;;;;;16.42;21.40;97957.94;8412448;28;20220;-72
2023/04/06 16:51:48;;;;;;;8.03;6.40;;;;;;;16.33;21.88;97962.00;8412852;28;20302;-72
2023/04/06 16:55:51;;;;;;;6.50;5.90;;;;;;;16.03;21.65;97967.53;8412925;28;20244;-72
2023/04/06 16:59:54;;;;;;;6.87;6.00;;;;;;;16.06;22.83;97967.31;8412758;28;20338;-72
2023/04/06 17:03:57;;;;;;;7.00;6.30;;;;;;;15.78;22.67;97963.94;8412762;28;20228;-72
2023/04/06 17:08:02;;;;;;;12.80;10.73;;;;;;;15.77;23.11;97967.47;8412635;28;20228;-72
2023/04/06 17:12:06;;;;;;;9.53;8.63;;;;;;;15.75;22.33;97965.91;8412256;28;20224;-71
2023/04/06 17:16:08;;;;;;;12.67;11.30;;;;;;;15.45;22.64;97962.53;8412420;28;20235;-71
2023/04/06 17:20:11;;;;;;;9.93;8.93;;;;;;;15.41;22.98;97966.28;8412284;28;20407;-71
2023/04/06 17:24:16;;;;;;;12.53;11.23;;;;;;;15.29;23.28;97966.22;8412390;28;20365;-72
2023/04/06 17:28:19;;;;;;;10.17;9.07;;;;;;;15.27;24.90;97971.56;8412081;28;20228;-71
2023/04/06 17:32:21;;;;;;;11.30;9.50;;;;;;;15.13;25.69;97967.19;8412164;28;20239;-72
2023/04/06 17:36:26;;;;;;;8.67;7.77;;;;;;;15.10;26.39;97975.22;8412000;28;20228;-71
2023/04/06 17:40:31;;;;;;;8.83;7.60;;;;;;;14.95;25.80;97971.78;8411605;28;20251;-71
2023/04/06 17:44:34;;;;;;;7.23;6.53;;;;;;;14.91;27.17;97978.13;8411976;28;20234;-72
2023/04/06 17:48:37;;;;;;;8.03;7.23;;;;;;;14.81;28.62;97980.47;8412167;28;20421;-72
2023/04/06 17:52:41;;;;;;;8.93;7.90;;;;;;;14.64;29.20;97967.59;8411477;28;20397;-71
2023/04/06 17:56:47;;;;;;;7.37;6.70;;;;;;;14.61;29.07;97986.06;8411008;28;20236;-71
2023/04/06 18:00:50;;;;;;;8.27;7.30;;;;;;;14.47;29.13;97992.06;8411811;28;20234;-74
2023/04/06 18:04:58;;;;;;;11.83;10.57;;;;;;;14.34;29.28;97981.53;8411478;28;20244;-72
2023/04/06 18:09:03;;;;;;;7.70;6.90;;;;;;;14.37;27.79;97989.16;8411442;28;20304;-72
2023/04/06 18:13:07;;;;;;;6.10;5.50;;;;;;;14.21;28.55;97991.00;8409905;28;20225;-73
2023/04/06 18:17:10;;;;;;;6.83;6.10;;;;;;;14.03;28.52;97998.09;8411495;28;20513;-72
2023/04/06 18:21:13;;;;;;;8.97;5.00;;;;;;;13.88;29.78;97998.06;8411463;28;20239;-71
2023/04/06 18:25:16;;;;;;;6.63;5.57;;;;;;;13.87;30.62;97996.38;8411358;28;20536;-72
2023/04/06 18:29:20;;;;;;;8.93;5.00;;;;;;;16.58;52.16;98010.00;8410999;28;20229;-74
2023/04/06 18:33:22;;;;;;;6.10;4.53;;;;;;;16.82;43.40;98012.75;8411316;28;20242;-71
2023/04/06 18:37:26;;;;;;;8.43;5.20;;;;;;;16.36;36.48;98001.00;8411548;28;20548;-73
2023/04/06 18:41:30;;;;;;;6.83;6.13;;;;;;;15.10;28.59;98006.53;8411341;28;20237;-70
2023/04/06 18:45:37;;;;;;;6.60;5.93;;;;;;;14.52;29.91;98003.03;8411457;28;20264;-70
2023/04/06 18:49:40;;;;;;;14.37;10.07;;;;;;;13.83;30.14;97966.25;8411049;28;20558;-71
2023/04/06 18:53:43;;;;;;;15.50;12.87;;;;;;;13.89;31.39;98007.53;8411015;28;20419;-69
2023/04/06 18:57:46;;;;;;;9.03;7.70;;;;;;;13.66;30.87;98010.63;8411088;28;20522;-70
2023/04/06 19:01:52;;;;;;;8.47;6.17;;;;;;;13.39;31.96;98008.63;8410567;28;20558;-70
2023/04/06 19:05:55;;;;;;;5.57;5.00;;;;;;;13.39;32.39;98015.59;8414124;28;20233;-72
2023/04/06 19:09:58;;;;;;;7.20;6.60;;;;;;;13.15;33.25;98012.53;8417782;28;20224;-70
2023/04/06 19:14:02;;;;;;;6.83;6.20;;;;;;;13.00;33.06;98014.19;8416742;28;20580;-70